sensor_id;sensor_type;location;lat;lon;timestamp;temperature;humidity
11989;DHT22;6054;50.966;7.094;2023-04-24T00:01:23;20.90;44.10
11989;DHT22;6054;50.966;7.094;2023-04-24T00:03:50;20.90;44.10
11989;DHT22;6054;50.966;7.094;2023-04-24T00:06:17;21.20;44.80
11989;DHT22;6054;50.966;7.094;2023-04-24T00:08:44;20.90;44.70
11989;DHT22;6054;50.966;7.094;2023-04-24T00:11:11;20.80;44.50
11989;DHT22;6054;50.966;7.094;2023-04-24T00:13:38;20.80;44.50
11989;DHT22;6054;50.966;7.094;2023-04-24T00:16:05;20.80;44.40
11989;DHT22;6054;50.966;7.094;2023-04-24T00:18:33;20.80;44.70
11989;DHT22;6054;50.966;7.094;2023-04-24T00:21:00;20.80;44.60
11989;DHT22;6054;50.966;7.094;2023-04-24T00:23:27;20.80;44.50
11989;DHT22;6054;50.966;7.094;2023-04-24T00:25:53;20.80;44.50
11989;DHT22;6054;50.966;7.094;2023-04-24T00:28:20;20.70;44.60
11989;DHT22;6054;50.966;7.094;2023-04-24T00:30:47;20.80;44.80
11989;DHT22;6054;50.966;7.094;2023-04-24T00:33:13;20.80;44.70
11989;DHT22;6054;50.966;7.094;2023-04-24T00:35:42;20.80;44.70
11989;DHT22;6054;50.966;7.094;2023-04-24T00:38:08;20.80;44.70
11989;DHT22;6054;50.966;7.094;2023-04-24T00:40:35;20.80;45.00
11989;DHT22;6054;50.966;7.094;2023-04-24T00:43:02;20.80;45.10
11989;DHT22;6054;50.966;7.094;2023-04-24T00:45:29;20.80;45.20
11989;DHT22;6054;50.966;7.094;2023-04-24T00:47:56;20.80;45.50
11989;DHT22;6054;50.966;7.094;2023-04-24T00:50:24;20.80;45.50
11989;DHT22;6054;50.966;7.094;2023-04-24T00:52:53;20.70;45.60
11989;DHT22;6054;50.966;7.094;2023-04-24T00:55:20;20.70;45.30
11989;DHT22;6054;50.966;7.094;2023-04-24T00:57:47;20.70;45.40
11989;DHT22;6054;50.966;7.094;2023-04-24T01:00:15;20.90;45.70
11989;DHT22;6054;50.966;7.094;2023-04-24T01:02:44;20.70;45.40
11989;DHT22;6054;50.966;7.094;2023-04-24T01:05:11;20.70;45.50
11989;DHT22;6054;50.966;7.094;2023-04-24T01:07:39;20.70;45.70
11989;DHT22;6054;50.966;7.094;2023-04-24T01:10:11;20.70;45.60
11989;DHT22;6054;50.966;7.094;2023-04-24T01:12:39;20.90;45.60
11989;DHT22;6054;50.966;7.094;2023-04-24T01:15:07;20.70;44.80
11989;DHT22;6054;50.966;7.094;2023-04-24T01:17:34;20.70;45.00
11989;DHT22;6054;50.966;7.094;2023-04-24T01:20:01;20.70;44.80
11989;DHT22;6054;50.966;7.094;2023-04-24T01:22:33;20.60;44.90
11989;DHT22;6054;50.966;7.094;2023-04-24T01:24:59;20.60;44.40
11989;DHT22;6054;50.966;7.094;2023-04-24T01:27:26;20.60;44.00
11989;DHT22;6054;50.966;7.094;2023-04-24T01:29:53;20.60;43.20
11989;DHT22;6054;50.966;7.094;2023-04-24T01:32:21;20.50;43.50
11989;DHT22;6054;50.966;7.094;2023-04-24T01:34:48;20.40;42.70
11989;DHT22;6054;50.966;7.094;2023-04-24T01:37:15;20.40;42.30
11989;DHT22;6054;50.966;7.094;2023-04-24T01:39:43;20.30;41.30
11989;DHT22;6054;50.966;7.094;2023-04-24T01:42:10;20.30;41.70
11989;DHT22;6054;50.966;7.094;2023-04-24T01:44:38;20.20;41.40
11989;DHT22;6054;50.966;7.094;2023-04-24T01:47:05;20.20;41.40
11989;DHT22;6054;50.966;7.094;2023-04-24T01:49:32;20.10;41.80
11989;DHT22;6054;50.966;7.094;2023-04-24T01:51:59;20.10;41.70
11989;DHT22;6054;50.966;7.094;2023-04-24T01:54:26;20.10;41.70
11989;DHT22;6054;50.966;7.094;2023-04-24T01:56:54;20.10;41.60
11989;DHT22;6054;50.966;7.094;2023-04-24T01:59:21;20.10;41.50
11989;DHT22;6054;50.966;7.094;2023-04-24T02:01:49;20.10;41.80
11989;DHT22;6054;50.966;7.094;2023-04-24T02:04:16;20.30;41.40
11989;DHT22;6054;50.966;7.094;2023-04-24T02:06:43;20.00;41.30
11989;DHT22;6054;50.966;7.094;2023-04-24T02:09:10;20.00;41.00
11989;DHT22;6054;50.966;7.094;2023-04-24T02:11:37;19.90;40.70
11989;DHT22;6054;50.966;7.094;2023-04-24T02:14:05;19.90;40.90
11989;DHT22;6054;50.966;7.094;2023-04-24T02:16:32;19.80;40.80
11989;DHT22;6054;50.966;7.094;2023-04-24T02:19:01;19.80;41.00
11989;DHT22;6054;50.966;7.094;2023-04-24T02:21:28;19.70;41.10
11989;DHT22;6054;50.966;7.094;2023-04-24T02:23:56;19.70;41.10
11989;DHT22;6054;50.966;7.094;2023-04-24T02:26:23;19.60;41.10
11989;DHT22;6054;50.966;7.094;2023-04-24T02:28:50;19.60;40.90
11989;DHT22;6054;50.966;7.094;2023-04-24T02:31:18;19.60;41.30
11989;DHT22;6054;50.966;7.094;2023-04-24T02:33:45;19.50;41.10
11989;DHT22;6054;50.966;7.094;2023-04-24T02:36:12;19.50;41.40
11989;DHT22;6054;50.966;7.094;2023-04-24T02:38:39;19.40;41.60
11989;DHT22;6054;50.966;7.094;2023-04-24T02:41:06;19.40;41.60
11989;DHT22;6054;50.966;7.094;2023-04-24T02:43:32;19.30;41.70
11989;DHT22;6054;50.966;7.094;2023-04-24T02:45:59;19.30;41.80
11989;DHT22;6054;50.966;7.094;2023-04-24T02:48:27;19.30;42.10
11989;DHT22;6054;50.966;7.094;2023-04-24T02:50:54;19.30;42.20
11989;DHT22;6054;50.966;7.094;2023-04-24T02:53:21;19.30;41.90
11989;DHT22;6054;50.966;7.094;2023-04-24T02:55:48;19.30;42.20
11989;DHT22;6054;50.966;7.094;2023-04-24T02:58:15;19.20;42.00
11989;DHT22;6054;50.966;7.094;2023-04-24T03:00:42;19.20;42.30
11989;DHT22;6054;50.966;7.094;2023-04-24T03:03:10;19.20;42.40
11989;DHT22;6054;50.966;7.094;2023-04-24T03:05:38;19.20;42.30
11989;DHT22;6054;50.966;7.094;2023-04-24T03:08:05;19.10;42.50
11989;DHT22;6054;50.966;7.094;2023-04-24T03:10:31;19.10;42.40
11989;DHT22;6054;50.966;7.094;2023-04-24T03:12:58;19.10;42.40
11989;DHT22;6054;50.966;7.094;2023-04-24T03:15:25;19.10;42.20
11989;DHT22;6054;50.966;7.094;2023-04-24T03:17:52;19.10;42.70
11989;DHT22;6054;50.966;7.094;2023-04-24T03:20:19;19.10;42.50
11989;DHT22;6054;50.966;7.094;2023-04-24T03:22:47;19.10;42.60
11989;DHT22;6054;50.966;7.094;2023-04-24T03:25:15;19.10;42.70
11989;DHT22;6054;50.966;7.094;2023-04-24T03:27:41;19.10;42.50
11989;DHT22;6054;50.966;7.094;2023-04-24T03:30:08;19.10;42.50
11989;DHT22;6054;50.966;7.094;2023-04-24T03:32:35;19.10;42.60
11989;DHT22;6054;50.966;7.094;2023-04-24T03:35:05;19.10;42.20
11989;DHT22;6054;50.966;7.094;2023-04-24T03:37:32;19.10;42.80
11989;DHT22;6054;50.966;7.094;2023-04-24T03:40:00;19.10;42.20
11989;DHT22;6054;50.966;7.094;2023-04-24T03:42:27;19.00;41.80
11989;DHT22;6054;50.966;7.094;2023-04-24T03:44:54;19.00;42.00
11989;DHT22;6054;50.966;7.094;2023-04-24T03:47:21;19.00;42.80
11989;DHT22;6054;50.966;7.094;2023-04-24T03:49:48;19.00;42.30
11989;DHT22;6054;50.966;7.094;2023-04-24T03:52:14;19.00;42.10
11989;DHT22;6054;50.966;7.094;2023-04-24T03:54:41;19.00;42.10
11989;DHT22;6054;50.966;7.094;2023-04-24T03:57:09;18.90;42.50
11989;DHT22;6054;50.966;7.094;2023-04-24T03:59:36;18.90;41.90
11989;DHT22;6054;50.966;7.094;2023-04-24T04:02:03;18.90;41.90
11989;DHT22;6054;50.966;7.094;2023-04-24T04:04:30;18.90;41.50
11989;DHT22;6054;50.966;7.094;2023-04-24T04:06:57;19.10;42.10
11989;DHT22;6054;50.966;7.094;2023-04-24T04:09:26;18.90;42.30
11989;DHT22;6054;50.966;7.094;2023-04-24T04:11:53;18.90;42.30
11989;DHT22;6054;50.966;7.094;2023-04-24T04:14:21;18.90;42.30
11989;DHT22;6054;50.966;7.094;2023-04-24T04:16:48;18.90;42.20
11989;DHT22;6054;50.966;7.094;2023-04-24T04:19:15;18.90;42.80
11989;DHT22;6054;50.966;7.094;2023-04-24T04:21:42;18.90;42.10
11989;DHT22;6054;50.966;7.094;2023-04-24T04:24:11;18.90;42.00
11989;DHT22;6054;50.966;7.094;2023-04-24T04:26:38;18.90;42.00
11989;DHT22;6054;50.966;7.094;2023-04-24T04:29:06;18.90;41.90
11989;DHT22;6054;50.966;7.094;2023-04-24T04:31:34;18.90;42.00
11989;DHT22;6054;50.966;7.094;2023-04-24T04:34:02;18.90;41.80
11989;DHT22;6054;50.966;7.094;2023-04-24T04:36:29;18.90;42.00
11989;DHT22;6054;50.966;7.094;2023-04-24T04:38:55;18.90;42.20
11989;DHT22;6054;50.966;7.094;2023-04-24T04:41:24;18.90;42.30
11989;DHT22;6054;50.966;7.094;2023-04-24T04:43:51;18.90;42.40
11989;DHT22;6054;50.966;7.094;2023-04-24T04:46:18;18.90;42.20
11989;DHT22;6054;50.966;7.094;2023-04-24T04:48:46;18.90;42.50
11989;DHT22;6054;50.966;7.094;2023-04-24T04:51:13;18.90;42.60
11989;DHT22;6054;50.966;7.094;2023-04-24T04:53:39;18.90;42.50
11989;DHT22;6054;50.966;7.094;2023-04-24T04:56:06;19.00;42.70
11989;DHT22;6054;50.966;7.094;2023-04-24T04:58:33;18.90;42.40
11989;DHT22;6054;50.966;7.094;2023-04-24T05:01:00;18.90;42.20
11989;DHT22;6054;50.966;7.094;2023-04-24T05:03:27;18.90;42.10
11989;DHT22;6054;50.966;7.094;2023-04-24T05:05:55;18.90;42.10
11989;DHT22;6054;50.966;7.094;2023-04-24T05:08:23;19.00;42.80
11989;DHT22;6054;50.966;7.094;2023-04-24T05:10:50;18.90;42.50
11989;DHT22;6054;50.966;7.094;2023-04-24T05:13:17;18.80;42.70
11989;DHT22;6054;50.966;7.094;2023-04-24T05:15:44;18.80;42.70
11989;DHT22;6054;50.966;7.094;2023-04-24T05:18:11;19.10;43.00
11989;DHT22;6054;50.966;7.094;2023-04-24T05:20:37;18.80;42.90
11989;DHT22;6054;50.966;7.094;2023-04-24T05:23:05;19.00;43.10
11989;DHT22;6054;50.966;7.094;2023-04-24T05:25:32;18.80;42.80
11989;DHT22;6054;50.966;7.094;2023-04-24T05:28:00;18.80;42.70
11989;DHT22;6054;50.966;7.094;2023-04-24T05:30:27;18.80;42.90
11989;DHT22;6054;50.966;7.094;2023-04-24T05:32:54;18.80;43.10
11989;DHT22;6054;50.966;7.094;2023-04-24T05:35:21;18.80;43.20
11989;DHT22;6054;50.966;7.094;2023-04-24T05:37:47;18.80;43.00
11989;DHT22;6054;50.966;7.094;2023-04-24T05:40:16;18.80;43.20
11989;DHT22;6054;50.966;7.094;2023-04-24T05:42:43;18.80;43.30
11989;DHT22;6054;50.966;7.094;2023-04-24T05:45:10;18.80;43.20
11989;DHT22;6054;50.966;7.094;2023-04-24T05:47:42;18.70;43.30
11989;DHT22;6054;50.966;7.094;2023-04-24T05:50:09;18.70;43.30
11989;DHT22;6054;50.966;7.094;2023-04-24T05:52:36;18.70;43.60
11989;DHT22;6054;50.966;7.094;2023-04-24T05:55:03;18.70;43.50
11989;DHT22;6054;50.966;7.094;2023-04-24T05:57:32;18.70;44.00
11989;DHT22;6054;50.966;7.094;2023-04-24T05:59:58;18.60;44.00
11989;DHT22;6054;50.966;7.094;2023-04-24T06:02:25;18.70;44.30
11989;DHT22;6054;50.966;7.094;2023-04-24T06:04:52;18.60;44.50
11989;DHT22;6054;50.966;7.094;2023-04-24T06:07:19;18.60;44.70
11989;DHT22;6054;50.966;7.094;2023-04-24T06:09:46;18.50;45.00
11989;DHT22;6054;50.966;7.094;2023-04-24T06:12:13;18.60;45.30
11989;DHT22;6054;50.966;7.094;2023-04-24T06:14:41;18.50;45.30
11989;DHT22;6054;50.966;7.094;2023-04-24T06:17:08;18.40;45.50
11989;DHT22;6054;50.966;7.094;2023-04-24T06:19:34;18.50;45.70
11989;DHT22;6054;50.966;7.094;2023-04-24T06:22:01;18.40;45.40
11989;DHT22;6054;50.966;7.094;2023-04-24T06:24:28;18.40;45.50
11989;DHT22;6054;50.966;7.094;2023-04-24T06:26:55;18.30;45.30
11989;DHT22;6054;50.966;7.094;2023-04-24T06:29:22;18.30;45.60
11989;DHT22;6054;50.966;7.094;2023-04-24T06:31:50;18.30;45.70
11989;DHT22;6054;50.966;7.094;2023-04-24T06:34:17;18.30;45.90
11989;DHT22;6054;50.966;7.094;2023-04-24T06:36:44;18.30;46.10
11989;DHT22;6054;50.966;7.094;2023-04-24T06:39:10;18.20;46.00
11989;DHT22;6054;50.966;7.094;2023-04-24T06:41:37;18.20;46.40
11989;DHT22;6054;50.966;7.094;2023-04-24T06:44:05;18.20;46.60
11989;DHT22;6054;50.966;7.094;2023-04-24T06:46:32;18.30;47.00
11989;DHT22;6054;50.966;7.094;2023-04-24T06:49:00;18.10;47.00
11989;DHT22;6054;50.966;7.094;2023-04-24T06:51:27;18.20;47.20
11989;DHT22;6054;50.966;7.094;2023-04-24T06:53:54;18.10;47.20
11989;DHT22;6054;50.966;7.094;2023-04-24T06:56:21;18.10;47.50
11989;DHT22;6054;50.966;7.094;2023-04-24T06:58:48;18.00;47.70
11989;DHT22;6054;50.966;7.094;2023-04-24T07:01:15;17.90;47.80
11989;DHT22;6054;50.966;7.094;2023-04-24T07:03:42;17.90;48.10
11989;DHT22;6054;50.966;7.094;2023-04-24T07:06:10;17.80;48.30
11989;DHT22;6054;50.966;7.094;2023-04-24T07:08:38;17.70;48.80
11989;DHT22;6054;50.966;7.094;2023-04-24T07:11:05;17.60;49.00
11989;DHT22;6054;50.966;7.094;2023-04-24T07:13:32;17.60;49.30
11989;DHT22;6054;50.966;7.094;2023-04-24T07:16:00;17.50;49.60
11989;DHT22;6054;50.966;7.094;2023-04-24T07:18:27;17.40;49.90
11989;DHT22;6054;50.966;7.094;2023-04-24T07:20:54;17.40;50.10
11989;DHT22;6054;50.966;7.094;2023-04-24T07:23:23;17.40;50.20
11989;DHT22;6054;50.966;7.094;2023-04-24T07:25:50;17.40;50.50
11989;DHT22;6054;50.966;7.094;2023-04-24T07:28:16;17.30;50.70
11989;DHT22;6054;50.966;7.094;2023-04-24T07:30:43;17.30;50.80
11989;DHT22;6054;50.966;7.094;2023-04-24T07:33:10;17.30;50.90
11989;DHT22;6054;50.966;7.094;2023-04-24T07:35:38;17.20;51.20
11989;DHT22;6054;50.966;7.094;2023-04-24T07:38:05;17.20;51.10
11989;DHT22;6054;50.966;7.094;2023-04-24T07:40:33;17.20;51.00
11989;DHT22;6054;50.966;7.094;2023-04-24T07:43:00;17.20;51.20
11989;DHT22;6054;50.966;7.094;2023-04-24T07:45:27;17.20;51.30
11989;DHT22;6054;50.966;7.094;2023-04-24T07:47:53;17.10;51.40
11989;DHT22;6054;50.966;7.094;2023-04-24T07:50:20;17.10;51.60
11989;DHT22;6054;50.966;7.094;2023-04-24T07:52:48;17.00;51.90
11989;DHT22;6054;50.966;7.094;2023-04-24T07:55:14;17.00;51.60
11989;DHT22;6054;50.966;7.094;2023-04-24T07:57:42;16.90;52.00
11989;DHT22;6054;50.966;7.094;2023-04-24T08:00:10;16.80;52.10
11989;DHT22;6054;50.966;7.094;2023-04-24T08:02:37;16.80;52.60
11989;DHT22;6054;50.966;7.094;2023-04-24T08:05:04;16.70;52.40
11989;DHT22;6054;50.966;7.094;2023-04-24T08:07:31;16.60;52.60
11989;DHT22;6054;50.966;7.094;2023-04-24T08:09:58;16.50;52.60
11989;DHT22;6054;50.966;7.094;2023-04-24T08:12:28;16.50;52.90
11989;DHT22;6054;50.966;7.094;2023-04-24T08:14:56;16.40;53.00
11989;DHT22;6054;50.966;7.094;2023-04-24T08:17:24;16.30;52.60
11989;DHT22;6054;50.966;7.094;2023-04-24T08:19:50;16.20;52.90
11989;DHT22;6054;50.966;7.094;2023-04-24T08:22:19;16.10;52.70
11989;DHT22;6054;50.966;7.094;2023-04-24T08:24:45;16.10;53.00
11989;DHT22;6054;50.966;7.094;2023-04-24T08:27:12;16.10;53.30
11989;DHT22;6054;50.966;7.094;2023-04-24T08:29:39;16.00;53.40
11989;DHT22;6054;50.966;7.094;2023-04-24T08:32:07;15.90;53.40
11989;DHT22;6054;50.966;7.094;2023-04-24T08:34:33;15.90;53.60
11989;DHT22;6054;50.966;7.094;2023-04-24T08:37:00;15.80;53.60
11989;DHT22;6054;50.966;7.094;2023-04-24T08:39:27;15.70;53.70
11989;DHT22;6054;50.966;7.094;2023-04-24T08:41:55;15.70;53.60
11989;DHT22;6054;50.966;7.094;2023-04-24T08:44:22;15.70;53.80
11989;DHT22;6054;50.966;7.094;2023-04-24T08:46:49;15.70;53.80
11989;DHT22;6054;50.966;7.094;2023-04-24T08:49:17;15.60;53.80
11989;DHT22;6054;50.966;7.094;2023-04-24T08:51:45;15.60;54.40
11989;DHT22;6054;50.966;7.094;2023-04-24T08:54:13;15.50;54.40
11989;DHT22;6054;50.966;7.094;2023-04-24T08:56:41;15.50;54.40
11989;DHT22;6054;50.966;7.094;2023-04-24T08:59:10;15.50;54.40
11989;DHT22;6054;50.966;7.094;2023-04-24T09:01:37;15.40;54.40
11989;DHT22;6054;50.966;7.094;2023-04-24T09:04:07;15.40;54.60
11989;DHT22;6054;50.966;7.094;2023-04-24T09:06:46;15.40;54.70
11989;DHT22;6054;50.966;7.094;2023-04-24T09:09:14;15.40;54.70
11989;DHT22;6054;50.966;7.094;2023-04-24T09:11:43;15.30;54.70
11989;DHT22;6054;50.966;7.094;2023-04-24T09:14:10;15.30;54.70
11989;DHT22;6054;50.966;7.094;2023-04-24T09:16:37;15.20;55.00
11989;DHT22;6054;50.966;7.094;2023-04-24T09:19:04;15.20;55.00
11989;DHT22;6054;50.966;7.094;2023-04-24T09:21:32;15.10;55.30
11989;DHT22;6054;50.966;7.094;2023-04-24T09:24:01;15.40;56.00
11989;DHT22;6054;50.966;7.094;2023-04-24T09:26:29;15.10;55.70
11989;DHT22;6054;50.966;7.094;2023-04-24T09:28:58;15.10;55.90
11989;DHT22;6054;50.966;7.094;2023-04-24T09:31:27;15.10;55.90
11989;DHT22;6054;50.966;7.094;2023-04-24T09:33:55;15.10;55.90
11989;DHT22;6054;50.966;7.094;2023-04-24T09:36:27;15.20;56.20
11989;DHT22;6054;50.966;7.094;2023-04-24T09:38:58;15.10;56.10
11989;DHT22;6054;50.966;7.094;2023-04-24T09:41:26;15.30;56.40
11989;DHT22;6054;50.966;7.094;2023-04-24T09:43:54;15.10;56.70
11989;DHT22;6054;50.966;7.094;2023-04-24T09:46:29;15.10;56.60
11989;DHT22;6054;50.966;7.094;2023-04-24T09:48:57;15.10;56.60
11989;DHT22;6054;50.966;7.094;2023-04-24T09:51:33;15.10;56.40
11989;DHT22;6054;50.966;7.094;2023-04-24T09:54:00;15.10;56.80
11989;DHT22;6054;50.966;7.094;2023-04-24T09:56:32;15.10;56.20
11989;DHT22;6054;50.966;7.094;2023-04-24T09:59:04;15.10;57.20
11989;DHT22;6054;50.966;7.094;2023-04-24T10:01:31;15.20;57.50
11989;DHT22;6054;50.966;7.094;2023-04-24T10:03:58;15.60;57.60
11989;DHT22;6054;50.966;7.094;2023-04-24T10:06:31;15.20;57.00
11989;DHT22;6054;50.966;7.094;2023-04-24T10:08:58;15.20;57.60
11989;DHT22;6054;50.966;7.094;2023-04-24T10:11:26;15.30;57.00
11989;DHT22;6054;50.966;7.094;2023-04-24T10:13:54;15.30;57.90
11989;DHT22;6054;50.966;7.094;2023-04-24T10:16:23;15.40;57.40
11989;DHT22;6054;50.966;7.094;2023-04-24T10:18:49;15.50;57.90
11989;DHT22;6054;50.966;7.094;2023-04-24T10:21:16;15.70;57.90
11989;DHT22;6054;50.966;7.094;2023-04-24T10:23:43;15.50;58.20
11989;DHT22;6054;50.966;7.094;2023-04-24T10:26:12;15.60;58.60
11989;DHT22;6054;50.966;7.094;2023-04-24T10:28:44;15.60;58.50
11989;DHT22;6054;50.966;7.094;2023-04-24T10:31:12;15.70;58.80
11989;DHT22;6054;50.966;7.094;2023-04-24T10:33:41;15.70;58.80
11989;DHT22;6054;50.966;7.094;2023-04-24T10:36:09;15.80;59.00
11989;DHT22;6054;50.966;7.094;2023-04-24T10:38:38;15.80;58.90
11989;DHT22;6054;50.966;7.094;2023-04-24T10:41:07;15.90;59.20
11989;DHT22;6054;50.966;7.094;2023-04-24T10:43:36;16.00;59.40
11989;DHT22;6054;50.966;7.094;2023-04-24T10:46:04;16.00;59.00
11989;DHT22;6054;50.966;7.094;2023-04-24T10:48:33;16.10;58.90
11989;DHT22;6054;50.966;7.094;2023-04-24T10:50:59;16.30;58.50
11989;DHT22;6054;50.966;7.094;2023-04-24T10:53:28;16.10;58.40
11989;DHT22;6054;50.966;7.094;2023-04-24T10:56:00;16.10;58.30
11989;DHT22;6054;50.966;7.094;2023-04-24T10:58:36;16.10;58.10
11989;DHT22;6054;50.966;7.094;2023-04-24T11:01:04;16.40;58.40
11989;DHT22;6054;50.966;7.094;2023-04-24T11:03:33;16.10;57.90
11989;DHT22;6054;50.966;7.094;2023-04-24T11:06:01;16.10;58.20
11989;DHT22;6054;50.966;7.094;2023-04-24T11:08:31;16.10;57.90
11989;DHT22;6054;50.966;7.094;2023-04-24T11:11:03;16.10;57.70
11989;DHT22;6054;50.966;7.094;2023-04-24T11:14:05;16.00;57.50
11989;DHT22;6054;50.966;7.094;2023-04-24T11:16:34;16.00;57.70
11989;DHT22;6054;50.966;7.094;2023-04-24T11:19:05;16.00;57.80
11989;DHT22;6054;50.966;7.094;2023-04-24T11:21:32;15.90;57.40
11989;DHT22;6054;50.966;7.094;2023-04-24T11:24:23;15.90;57.10
11989;DHT22;6054;50.966;7.094;2023-04-24T11:26:51;15.80;57.20
11989;DHT22;6054;50.966;7.094;2023-04-24T11:29:19;15.80;56.80
11989;DHT22;6054;50.966;7.094;2023-04-24T11:31:46;15.80;57.60
11989;DHT22;6054;50.966;7.094;2023-04-24T11:34:18;15.80;57.30
11989;DHT22;6054;50.966;7.094;2023-04-24T11:36:45;15.80;57.30
11989;DHT22;6054;50.966;7.094;2023-04-24T11:39:13;15.80;58.00
11989;DHT22;6054;50.966;7.094;2023-04-24T11:41:40;15.80;58.20
11989;DHT22;6054;50.966;7.094;2023-04-24T11:44:08;15.80;58.00
11989;DHT22;6054;50.966;7.094;2023-04-24T11:46:35;15.90;59.00
11989;DHT22;6054;50.966;7.094;2023-04-24T11:49:03;16.00;59.20
11989;DHT22;6054;50.966;7.094;2023-04-24T11:51:32;16.00;59.10
11989;DHT22;6054;50.966;7.094;2023-04-24T11:53:59;16.10;59.10
11989;DHT22;6054;50.966;7.094;2023-04-24T11:56:25;16.20;58.80
11989;DHT22;6054;50.966;7.094;2023-04-24T11:58:52;16.40;58.40
11989;DHT22;6054;50.966;7.094;2023-04-24T12:01:20;16.20;58.20
11989;DHT22;6054;50.966;7.094;2023-04-24T12:03:48;16.30;58.30
11989;DHT22;6054;50.966;7.094;2023-04-24T12:06:17;16.30;58.50
11989;DHT22;6054;50.966;7.094;2023-04-24T12:08:47;16.30;58.10
11989;DHT22;6054;50.966;7.094;2023-04-24T12:11:15;16.30;58.30
11989;DHT22;6054;50.966;7.094;2023-04-24T12:13:43;16.40;58.80
11989;DHT22;6054;50.966;7.094;2023-04-24T12:16:09;16.40;58.60
11989;DHT22;6054;50.966;7.094;2023-04-24T12:18:41;16.40;59.20
11989;DHT22;6054;50.966;7.094;2023-04-24T12:21:16;16.40;59.80
11989;DHT22;6054;50.966;7.094;2023-04-24T12:23:43;16.50;59.70
11989;DHT22;6054;50.966;7.094;2023-04-24T12:26:12;16.60;59.50
11989;DHT22;6054;50.966;7.094;2023-04-24T12:28:39;16.60;59.10
11989;DHT22;6054;50.966;7.094;2023-04-24T12:31:06;16.70;59.10
11989;DHT22;6054;50.966;7.094;2023-04-24T12:33:34;16.60;59.20
11989;DHT22;6054;50.966;7.094;2023-04-24T12:36:02;16.70;59.10
11989;DHT22;6054;50.966;7.094;2023-04-24T12:38:29;16.80;59.20
11989;DHT22;6054;50.966;7.094;2023-04-24T12:41:03;16.80;59.20
11989;DHT22;6054;50.966;7.094;2023-04-24T12:43:31;16.80;59.50
11989;DHT22;6054;50.966;7.094;2023-04-24T12:45:58;17.10;59.50
11989;DHT22;6054;50.966;7.094;2023-04-24T12:48:25;16.90;59.90
11989;DHT22;6054;50.966;7.094;2023-04-24T12:50:52;17.00;60.00
11989;DHT22;6054;50.966;7.094;2023-04-24T12:53:19;17.10;59.70
11989;DHT22;6054;50.966;7.094;2023-04-24T12:55:46;17.20;58.70
11989;DHT22;6054;50.966;7.094;2023-04-24T12:58:18;17.30;58.80
11989;DHT22;6054;50.966;7.094;2023-04-24T13:00:46;17.30;58.70
11989;DHT22;6054;50.966;7.094;2023-04-24T13:03:14;17.30;58.40
11989;DHT22;6054;50.966;7.094;2023-04-24T13:05:42;17.40;58.60
11989;DHT22;6054;50.966;7.094;2023-04-24T13:08:09;17.40;57.60
11989;DHT22;6054;50.966;7.094;2023-04-24T13:10:36;17.40;57.20
11989;DHT22;6054;50.966;7.094;2023-04-24T13:13:03;17.40;56.70
11989;DHT22;6054;50.966;7.094;2023-04-24T13:15:30;17.40;56.70
11989;DHT22;6054;50.966;7.094;2023-04-24T13:17:58;17.50;57.20
11989;DHT22;6054;50.966;7.094;2023-04-24T13:20:25;17.40;57.30
11989;DHT22;6054;50.966;7.094;2023-04-24T13:22:51;17.50;57.30
11989;DHT22;6054;50.966;7.094;2023-04-24T13:25:18;17.50;56.70
11989;DHT22;6054;50.966;7.094;2023-04-24T13:27:45;17.60;57.60
11989;DHT22;6054;50.966;7.094;2023-04-24T13:30:12;17.70;56.40
11989;DHT22;6054;50.966;7.094;2023-04-24T13:32:39;17.80;55.40
11989;DHT22;6054;50.966;7.094;2023-04-24T13:35:08;17.80;53.90
11989;DHT22;6054;50.966;7.094;2023-04-24T13:37:35;17.90;54.00
11989;DHT22;6054;50.966;7.094;2023-04-24T13:40:02;17.90;54.00
11989;DHT22;6054;50.966;7.094;2023-04-24T13:42:31;17.90;53.50
11989;DHT22;6054;50.966;7.094;2023-04-24T13:44:58;18.00;53.70
11989;DHT22;6054;50.966;7.094;2023-04-24T13:47:25;18.00;53.00
11989;DHT22;6054;50.966;7.094;2023-04-24T13:49:51;18.10;52.90
11989;DHT22;6054;50.966;7.094;2023-04-24T13:52:20;18.20;54.00
11989;DHT22;6054;50.966;7.094;2023-04-24T13:54:47;18.50;53.70
11989;DHT22;6054;50.966;7.094;2023-04-24T13:57:14;18.60;50.40
11989;DHT22;6054;50.966;7.094;2023-04-24T13:59:42;18.70;48.90
11989;DHT22;6054;50.966;7.094;2023-04-24T14:02:08;18.70;48.20
11989;DHT22;6054;50.966;7.094;2023-04-24T14:04:35;18.70;48.40
11989;DHT22;6054;50.966;7.094;2023-04-24T14:07:02;18.70;48.50
11989;DHT22;6054;50.966;7.094;2023-04-24T14:09:30;19.00;48.50
11989;DHT22;6054;50.966;7.094;2023-04-24T14:11:57;18.60;46.90
11989;DHT22;6054;50.966;7.094;2023-04-24T14:14:24;18.60;47.30
11989;DHT22;6054;50.966;7.094;2023-04-24T14:16:50;18.60;47.30
11989;DHT22;6054;50.966;7.094;2023-04-24T14:19:17;18.60;47.30
11989;DHT22;6054;50.966;7.094;2023-04-24T14:21:44;18.60;47.30
11989;DHT22;6054;50.966;7.094;2023-04-24T14:24:11;18.80;47.20
11989;DHT22;6054;50.966;7.094;2023-04-24T14:26:39;18.60;46.00
11989;DHT22;6054;50.966;7.094;2023-04-24T14:29:06;18.60;46.10
11989;DHT22;6054;50.966;7.094;2023-04-24T14:31:32;18.70;45.50
11989;DHT22;6054;50.966;7.094;2023-04-24T14:33:59;18.70;45.50
11989;DHT22;6054;50.966;7.094;2023-04-24T14:36:26;18.80;44.70
11989;DHT22;6054;50.966;7.094;2023-04-24T14:38:52;18.80;45.50
11989;DHT22;6054;50.966;7.094;2023-04-24T14:41:19;18.90;45.70
11989;DHT22;6054;50.966;7.094;2023-04-24T14:43:47;19.00;45.30
11989;DHT22;6054;50.966;7.094;2023-04-24T14:46:15;19.00;44.50
11989;DHT22;6054;50.966;7.094;2023-04-24T14:48:42;19.10;44.90
11989;DHT22;6054;50.966;7.094;2023-04-24T14:51:09;19.20;43.50
11989;DHT22;6054;50.966;7.094;2023-04-24T14:53:36;19.40;43.10
11989;DHT22;6054;50.966;7.094;2023-04-24T14:56:02;19.60;42.90
11989;DHT22;6054;50.966;7.094;2023-04-24T14:58:29;19.70;43.10
11989;DHT22;6054;50.966;7.094;2023-04-24T15:00:57;19.80;42.40
11989;DHT22;6054;50.966;7.094;2023-04-24T15:03:24;19.90;41.00
11989;DHT22;6054;50.966;7.094;2023-04-24T15:05:52;20.00;42.20
11989;DHT22;6054;50.966;7.094;2023-04-24T15:08:18;20.00;41.50
11989;DHT22;6054;50.966;7.094;2023-04-24T15:10:46;20.10;41.60
11989;DHT22;6054;50.966;7.094;2023-04-24T15:13:13;20.10;42.00
11989;DHT22;6054;50.966;7.094;2023-04-24T15:15:39;20.20;42.10
11989;DHT22;6054;50.966;7.094;2023-04-24T15:18:08;20.30;41.40
11989;DHT22;6054;50.966;7.094;2023-04-24T15:20:37;20.30;42.00
11989;DHT22;6054;50.966;7.094;2023-04-24T15:23:05;20.50;40.60
11989;DHT22;6054;50.966;7.094;2023-04-24T15:25:32;20.60;40.30
11989;DHT22;6054;50.966;7.094;2023-04-24T15:27:58;20.70;40.00
11989;DHT22;6054;50.966;7.094;2023-04-24T15:30:25;20.80;40.10
11989;DHT22;6054;50.966;7.094;2023-04-24T15:32:52;20.90;39.70
11989;DHT22;6054;50.966;7.094;2023-04-24T15:35:20;21.20;39.20
11989;DHT22;6054;50.966;7.094;2023-04-24T15:37:48;20.90;39.10
11989;DHT22;6054;50.966;7.094;2023-04-24T15:40:15;20.90;39.00
11989;DHT22;6054;50.966;7.094;2023-04-24T15:42:42;20.80;38.20
11989;DHT22;6054;50.966;7.094;2023-04-24T15:45:10;20.70;39.00
11989;DHT22;6054;50.966;7.094;2023-04-24T15:47:37;20.70;39.30